Shields, ND (58569)

7:18 PM MST on December 18, 2014 (GMT -0700)
RAWS TATANKA PRAIRIE ND US | Change Station
CLOSE
Current Station
Personal Weather Station
Location: Solen, ND
Elevation: 2315 ft
Nearby Weather Stations

Elev 2315 ft 46.16 °N, 100.90 °W | Updated 53 minutes ago

Mostly Cloudy
Mostly Cloudy
26 °F
Feels Like 17 °F
N
9
Wind Variable Wind from SSW
Gusts 12.0 mph

Today
High -- | Low -- °F
--% Chance of Precip.
Yesterday
High -- | Low -- °F
Precip. -- in
7:22 AM 4:00 PM
Waning Crescent, 11% visible
Pressure 30.01 in
Visibility 5.0 miles
Clouds Mostly Cloudy 1000 ft
Overcast 1400 ft
Windchill 17 °F
Dew Point 26 °F
Humidity 100%
Rainfall 0.00 in
Snow Depth Not available.
UV 0 out of 12
Pollen .10 out of 12
Air Quality Not available.
Flu Activity Not available.
METAR KY19 190155Z AUTO 18007KT 5SM BR BKN010 OVC014 M03/M04 A3001 RMK AO2

More Conditions Fewer Conditions

Pressure 30.01 in
Visibility 5.0 miles
Clouds Mostly Cloudy 1000 ft
Overcast 1400 ft
Windchill 17 °F
Dew Point 26 °F
Humidity 100%
Rainfall 0.00 in
Snow Depth Not available.
UV 0 out of 12
Pollen .10 out of 12
Air Quality Not available.
Flu Activity Not available.
METAR KY19 190155Z AUTO 18007KT 5SM BR BKN010 OVC014 M03/M04 A3001 RMK AO2

More Conditions Fewer Conditions

10-Day Weather Forecast

Almanac

Astronomy

Dec. 18, 2014 Rise Set
Actual Time
Civil Twilight
Nautical Twilight
Astronomical Twilight
Moon
Length of Visible Light
Length of Day
Tomorrow will be .
, % of the Moon is Illuminated

Today's Extremes

State Highs State Lows

Community

WunderPhotos

Upload Photos

1,779,036 photos uploaded!

WunderBlogs® & News

Nearby

Air Quality

  Air Quality AQ Index Pollutant
Not available.

Snow Depth

Station Depth Elevation

Earthquake Activity

City Distance Mag. Time & Date
Minimum magnitude displayed is 2.5.

Coastal Water Temperatures

Place Temperature

Nearby Weather Stations